Impacts TAF Board INFO
FOR SITUATIONAL AWARENESS. NOT TO BE USED FOR FLIGHT PLANNING PURPOSES.
IDs:

KDEN - Denver Intl, CO, US

Issued at 0600 UTC 14 Dec 2017
Updated at 0622 UTC 14 Dec 2017
Potential Impact None Slight Moderate High
Time<<15/07Z 15/08Z 15/09Z 15/10Z 15/11Z 15/12Z 15/13Z 15/14Z 15/15Z 15/16Z 15/17Z 15/18Z 15/19Z
Type PRVL PRVL PRVL PRVL PRVL
VIS >6 >6 >6 >6 >6
CIG -- -- -- -- --
Cover FEW FEW FEW FEW FEW
FltCat VFR VFR VFR VFR VFR
WX -- -- -- -- --
WDir 190 190 190 190 190
WSpd 8 8 8 8 8
WGst -- -- -- -- --

Raw TAF
KDEN 140600Z 1406/1512 01012KT P6SM VCSH SCT025 OVC040
  FM140700 35010KT 3SM -SN BKN015 OVC025
  TEMPO 1408/1412 1 1/2SM -SN BR BKN008 OVC015
  FM141400 32007KT P6SM -SN SCT012 OVC025
  FM141500 30005KT P6SM VCSH SCT020 BKN045
  FM141700 33009KT P6SM SCT050 BKN090
  FM141900 33007KT P6SM FEW090 SCT220
  FM150100 04008KT P6SM SCT250
  FM150200 10006KT P6SM FEW250
  FM150600 19008KT P6SM FEW250


METAR Board
Radar Display
Forecast Discussion

FOR SITUATIONAL AWARENESS. NOT TO BE USED FOR FLIGHT PLANNING PURPOSES.